createdAt,value
2023-04-18T00:00:23.673Z,63.76
2023-04-18T00:02:54.225Z,63.86
2023-04-18T00:05:22.001Z,63.74
2023-04-18T00:07:48.992Z,63.67
2023-04-18T00:10:16.060Z,63.74
2023-04-18T00:12:43.101Z,63.73
2023-04-18T00:15:10.329Z,63.85
2023-04-18T00:17:38.574Z,63.67
2023-04-18T00:20:12.898Z,63.70
2023-04-18T00:22:42.827Z,63.64
2023-04-18T00:25:11.137Z,63.49
2023-04-18T00:27:41.741Z,63.68
2023-04-18T00:30:09.436Z,63.70
2023-04-18T00:32:37.923Z,63.80
2023-04-18T00:35:05.945Z,63.95
2023-04-18T00:37:32.916Z,64.12
2023-04-18T00:39:59.703Z,64.05
2023-04-18T00:42:28.960Z,64.12
2023-04-18T00:44:55.722Z,64.26
2023-04-18T00:47:22.510Z,64.29
2023-04-18T00:49:49.600Z,64.20
2023-04-18T00:52:18.460Z,64.32
2023-04-18T00:54:45.396Z,64.22
2023-04-18T00:57:13.024Z,64.32
2023-04-18T00:59:40.041Z,64.13
2023-04-18T01:02:07.932Z,64.30
2023-04-18T01:04:34.958Z,64.31
2023-04-18T01:07:02.303Z,64.37
2023-04-18T01:09:29.558Z,64.44
2023-04-18T01:11:56.745Z,64.46
2023-04-18T01:14:24.123Z,64.50
2023-04-18T01:16:51.067Z,64.54
2023-04-18T01:19:19.064Z,64.39
2023-04-18T01:21:45.994Z,64.31
2023-04-18T01:24:17.759Z,64.39
2023-04-18T01:26:45.902Z,64.46
2023-04-18T01:29:12.728Z,64.66
2023-04-18T01:31:40.831Z,64.80
2023-04-18T01:34:08.409Z,64.91
2023-04-18T01:36:36.327Z,65.23
2023-04-18T01:39:03.512Z,65.43
2023-04-18T01:41:32.849Z,65.55
2023-04-18T01:44:00.136Z,65.60
2023-04-18T01:46:27.624Z,65.71
2023-04-18T01:48:54.729Z,65.77
2023-04-18T01:51:21.743Z,65.85
2023-04-18T01:53:48.581Z,65.88
2023-04-18T01:56:15.364Z,65.97
2023-04-18T01:58:42.156Z,65.91
2023-04-18T02:01:09.040Z,65.81
2023-04-18T02:03:35.997Z,65.76
2023-04-18T02:06:04.904Z,65.69
2023-04-18T02:08:35.611Z,65.67
2023-04-18T02:11:05.146Z,65.81
2023-04-18T02:13:32.380Z,65.61
2023-04-18T02:15:59.272Z,65.67
2023-04-18T02:18:26.728Z,65.55
2023-04-18T02:20:53.692Z,65.68
2023-04-18T02:23:21.881Z,65.67
2023-04-18T02:25:48.687Z,65.56
2023-04-18T02:28:17.515Z,65.56
2023-04-18T02:30:44.284Z,65.57
2023-04-18T02:33:11.089Z,65.56
2023-04-18T02:35:38.054Z,65.54
2023-04-18T02:38:04.898Z,65.67
2023-04-18T02:40:31.658Z,65.66
2023-04-18T02:42:59.494Z,65.55
2023-04-18T02:45:26.241Z,65.61
2023-04-18T02:47:56.523Z,65.65
2023-04-18T02:50:25.154Z,65.67
2023-04-18T02:52:52.835Z,65.72
2023-04-18T02:55:22.004Z,65.77
2023-04-18T02:57:48.884Z,65.58
2023-04-18T03:00:47.357Z,65.73
2023-04-18T03:03:36.144Z,65.80
2023-04-18T03:06:32.350Z,65.91
2023-04-18T03:09:00.958Z,66.02
2023-04-18T03:11:28.229Z,66.06
2023-04-18T03:13:57.641Z,66.06
2023-04-18T03:16:25.965Z,65.96
2023-04-18T03:18:53.764Z,66.05
2023-04-18T03:21:21.680Z,66.00
2023-04-18T03:23:48.611Z,66.17
2023-04-18T03:26:15.865Z,66.23
2023-04-18T03:28:45.433Z,66.24
2023-04-18T03:31:12.445Z,66.38
2023-04-18T03:33:42.393Z,66.50
2023-04-18T03:36:12.017Z,66.44
2023-04-18T03:38:40.627Z,66.27
2023-04-18T03:41:08.374Z,66.23
2023-04-18T03:43:36.654Z,66.40
2023-04-18T03:46:04.523Z,66.28
2023-04-18T03:48:37.444Z,66.53
2023-04-18T03:51:08.234Z,66.66
2023-04-18T03:53:36.419Z,66.68
2023-04-18T03:56:03.635Z,66.79
2023-04-18T03:58:49.202Z,66.98
2023-04-18T04:01:16.745Z,66.92
2023-04-18T04:03:44.183Z,67.09
2023-04-18T04:06:11.652Z,67.03
2023-04-18T04:08:38.815Z,67.23
2023-04-18T04:11:05.963Z,67.23
2023-04-18T04:13:33.246Z,67.19
2023-04-18T04:16:00.234Z,67.19
2023-04-18T04:18:31.196Z,67.11
2023-04-18T04:21:21.221Z,67.28
2023-04-18T04:23:51.138Z,67.27
2023-04-18T04:26:30.733Z,67.34
2023-04-18T04:29:03.780Z,67.41
2023-04-18T04:31:32.198Z,67.39
2023-04-18T04:33:59.429Z,67.37
2023-04-18T04:36:27.300Z,67.34
2023-04-18T04:38:55.430Z,67.35
2023-04-18T04:41:29.491Z,67.36
2023-04-18T04:43:56.344Z,67.49
2023-04-18T04:46:29.523Z,67.61
2023-04-18T04:48:57.395Z,67.50
2023-04-18T04:51:26.178Z,67.78
2023-04-18T04:53:52.958Z,67.63
2023-04-18T04:56:19.891Z,67.54
2023-04-18T04:58:47.279Z,67.21
2023-04-18T05:01:32.626Z,67.46
2023-04-18T05:03:59.555Z,67.35
2023-04-18T05:06:26.616Z,67.53
2023-04-18T05:08:53.607Z,67.42
2023-04-18T05:11:21.110Z,67.25
2023-04-18T05:13:47.808Z,66.96
2023-04-18T05:16:14.578Z,66.77
2023-04-18T05:18:41.631Z,66.59
2023-04-18T05:21:08.410Z,66.47
2023-04-18T05:23:37.057Z,66.34
2023-04-18T05:26:05.074Z,66.15
2023-04-18T05:28:32.684Z,66.14
2023-04-18T05:31:02.256Z,66.23
2023-04-18T05:33:30.308Z,66.41
2023-04-18T05:35:57.959Z,66.57
2023-04-18T05:38:25.357Z,66.57
2023-04-18T05:40:52.182Z,66.18
2023-04-18T05:43:19.591Z,66.38
2023-04-18T05:45:46.726Z,66.22
2023-04-18T05:48:13.969Z,66.18
2023-04-18T05:50:40.808Z,65.68
2023-04-18T05:53:07.625Z,65.87
2023-04-18T05:55:34.550Z,66.22
2023-04-18T05:58:01.390Z,66.03
2023-04-18T06:00:28.426Z,65.81
2023-04-18T06:02:55.377Z,65.80
2023-04-18T06:05:23.943Z,65.85
2023-04-18T06:07:53.422Z,65.84
2023-04-18T06:10:20.332Z,65.34
2023-04-18T06:12:47.080Z,65.36
2023-04-18T06:15:14.783Z,65.45
2023-04-18T06:17:41.607Z,65.41
2023-04-18T06:20:09.828Z,65.52
2023-04-18T06:22:36.785Z,65.67
2023-04-18T06:25:03.794Z,65.48
2023-04-18T06:27:31.882Z,65.31
2023-04-18T06:29:59.285Z,64.99
2023-04-18T06:32:28.963Z,64.78
2023-04-18T06:34:55.861Z,64.40
2023-04-18T06:37:22.739Z,64.42
2023-04-18T06:39:49.538Z,64.44
2023-04-18T06:42:16.340Z,64.70
2023-04-18T06:44:47.739Z,64.76
2023-04-18T06:47:14.677Z,64.39
2023-04-18T06:49:41.492Z,64.28
2023-04-18T06:52:08.265Z,64.17
2023-04-18T06:54:35.044Z,64.15
2023-04-18T06:57:03.771Z,63.96
2023-04-18T06:59:30.765Z,63.39
2023-04-18T07:01:57.605Z,63.32
2023-04-18T07:04:24.780Z,63.11
2023-04-18T07:06:52.013Z,63.38
2023-04-18T07:09:18.919Z,63.28
2023-04-18T07:11:45.789Z,62.85
2023-04-18T07:14:12.771Z,62.21
2023-04-18T07:16:39.826Z,62.44
2023-04-18T07:19:06.891Z,61.69
2023-04-18T07:21:33.707Z,61.37
2023-04-18T07:24:00.542Z,60.97
2023-04-18T07:26:27.718Z,60.66
2023-04-18T07:28:54.693Z,60.83
2023-04-18T07:31:21.579Z,60.31
2023-04-18T07:33:48.453Z,60.17
2023-04-18T07:36:15.345Z,59.66
2023-04-18T07:38:42.135Z,59.17
2023-04-18T07:41:08.935Z,59.17
2023-04-18T07:43:36.082Z,59.18
2023-04-18T07:46:03.119Z,58.58
2023-04-18T07:48:29.883Z,58.25
2023-04-18T07:50:56.708Z,58.08
2023-04-18T07:53:23.584Z,58.46
2023-04-18T07:55:50.559Z,57.79
2023-04-18T07:58:17.728Z,57.33
2023-04-18T08:00:45.021Z,57.14
2023-04-18T08:03:12.890Z,57.05
2023-04-18T08:05:41.463Z,57.14
2023-04-18T08:08:09.907Z,57.12
2023-04-18T08:10:39.255Z,57.09
2023-04-18T08:13:06.721Z,56.75
2023-04-18T08:15:33.661Z,56.51
2023-04-18T08:18:01.171Z,56.26
2023-04-18T08:20:28.138Z,55.04
2023-04-18T08:25:24.936Z,54.36
2023-04-18T08:27:53.927Z,54.01
2023-04-18T08:30:20.856Z,53.26
2023-04-18T08:32:47.731Z,53.28
2023-04-18T08:35:14.680Z,53.00
2023-04-18T08:37:41.941Z,51.79
2023-04-18T08:40:09.299Z,51.17
2023-04-18T08:42:37.382Z,51.49
2023-04-18T08:45:05.873Z,51.25
2023-04-18T08:47:35.361Z,51.45
2023-04-18T08:50:02.547Z,51.54
2023-04-18T08:52:31.175Z,51.09
2023-04-18T08:54:57.969Z,50.05
2023-04-18T08:57:27.008Z,48.76
2023-04-18T08:59:55.543Z,48.55
2023-04-18T09:02:23.470Z,47.35
2023-04-18T09:04:52.846Z,47.17
2023-04-18T09:07:27.982Z,46.89
2023-04-18T09:09:57.386Z,46.22
2023-04-18T09:12:26.649Z,45.12
2023-04-18T09:14:58.684Z,44.09
2023-04-18T09:17:31.672Z,44.38
2023-04-18T09:19:59.494Z,45.08
2023-04-18T09:22:26.532Z,44.46
2023-04-18T09:24:57.421Z,45.20
2023-04-18T09:27:24.535Z,45.87
2023-04-18T09:29:54.760Z,46.29
2023-04-18T09:32:25.149Z,46.62
2023-04-18T09:34:58.099Z,46.67
2023-04-18T09:37:26.559Z,46.64
2023-04-18T09:39:53.791Z,46.77
2023-04-18T09:42:21.738Z,46.87
2023-04-18T09:45:08.366Z,46.17
2023-04-18T09:47:36.848Z,46.83
2023-04-18T09:50:09.726Z,47.38
2023-04-18T09:52:41.353Z,48.35
2023-04-18T09:55:10.488Z,48.95
2023-04-18T09:57:41.441Z,49.00
2023-04-18T10:00:14.446Z,48.82
2023-04-18T10:02:49.036Z,48.99
2023-04-18T10:05:19.561Z,49.63
2023-04-18T10:07:49.826Z,49.50
2023-04-18T10:10:17.624Z,49.14
2023-04-18T10:12:48.004Z,49.13
2023-04-18T10:15:16.166Z,48.77
2023-04-18T10:17:56.102Z,48.73
2023-04-18T10:20:32.178Z,48.64
2023-04-18T10:22:59.919Z,48.77
2023-04-18T10:25:38.838Z,48.82
2023-04-18T10:28:10.085Z,48.71
2023-04-18T10:30:42.354Z,48.68
2023-04-18T10:33:41.096Z,48.58
2023-04-18T10:36:09.459Z,48.16
2023-04-18T10:38:45.417Z,48.07
2023-04-18T10:41:25.457Z,47.95
2023-04-18T10:44:23.009Z,47.86
2023-04-18T10:46:52.725Z,47.98
2023-04-18T10:49:26.050Z,47.88
2023-04-18T10:51:56.684Z,47.63
2023-04-18T10:54:30.859Z,47.68
2023-04-18T10:57:00.278Z,47.64
2023-04-18T10:59:29.998Z,47.30
2023-04-18T11:02:18.043Z,46.92
2023-04-18T11:04:51.430Z,47.06
2023-04-18T11:07:18.386Z,47.04
2023-04-18T11:09:57.342Z,47.07
2023-04-18T11:12:24.110Z,46.62
2023-04-18T11:14:55.271Z,46.34
2023-04-18T11:17:24.376Z,46.02
2023-04-18T11:19:59.403Z,45.75
2023-04-18T11:22:26.934Z,45.51
2023-04-18T11:25:00.990Z,45.71
2023-04-18T11:27:29.685Z,45.62
2023-04-18T11:29:57.644Z,45.42
2023-04-18T11:32:24.627Z,44.88
2023-04-18T11:34:53.519Z,45.19
2023-04-18T11:37:20.931Z,45.19
2023-04-18T11:39:48.127Z,44.87
2023-04-18T11:42:15.043Z,44.91
2023-04-18T11:44:46.050Z,45.05
2023-04-18T11:47:33.127Z,45.21
2023-04-18T11:50:00.926Z,44.95
2023-04-18T11:52:29.641Z,44.84
2023-04-18T11:54:58.670Z,44.81
2023-04-18T11:57:27.017Z,44.96
2023-04-18T11:59:59.546Z,44.91
2023-04-18T12:02:39.011Z,44.74
2023-04-18T12:05:06.665Z,45.16
2023-04-18T12:07:35.210Z,45.76
2023-04-18T12:10:04.448Z,46.21
2023-04-18T12:12:31.346Z,47.00
2023-04-18T12:14:59.992Z,47.67
2023-04-18T12:17:28.098Z,48.43
2023-04-18T12:19:55.595Z,49.24
2023-04-18T12:22:42.990Z,49.95
2023-04-18T12:25:24.220Z,49.90
2023-04-18T12:27:55.950Z,50.04
2023-04-18T12:30:31.073Z,50.37
2023-04-18T12:33:00.163Z,50.42
2023-04-18T12:35:28.076Z,50.38
2023-04-18T12:37:57.428Z,50.14
2023-04-18T12:40:26.385Z,50.13
2023-04-18T12:42:54.576Z,50.17
2023-04-18T12:45:22.942Z,50.29
2023-04-18T12:47:51.668Z,50.51
2023-04-18T12:50:23.468Z,50.73
2023-04-18T12:52:55.858Z,51.07
2023-04-18T12:55:25.945Z,51.17
2023-04-18T12:57:54.564Z,50.96
2023-04-18T13:00:23.566Z,50.92
2023-04-18T13:02:52.343Z,50.50
2023-04-18T13:05:22.752Z,50.56
2023-04-18T13:07:49.898Z,50.61
2023-04-18T13:10:19.059Z,50.74
2023-04-18T13:12:46.957Z,51.18
2023-04-18T13:15:13.824Z,51.17
2023-04-18T13:17:40.673Z,51.05
2023-04-18T13:20:15.208Z,51.05
2023-04-18T13:22:43.388Z,50.91
2023-04-18T13:25:11.148Z,51.20
2023-04-18T13:27:41.429Z,51.18
2023-04-18T13:30:10.791Z,50.80
2023-04-18T13:32:39.147Z,50.74
2023-04-18T13:35:08.796Z,50.58
2023-04-18T13:37:35.919Z,50.46
2023-04-18T13:40:06.929Z,50.82
2023-04-18T13:42:35.911Z,51.03
2023-04-18T13:45:03.305Z,51.06
2023-04-18T13:47:30.424Z,51.07
2023-04-18T13:49:57.952Z,51.11
2023-04-18T13:52:25.743Z,51.01
2023-04-18T13:54:52.927Z,50.97
2023-04-18T13:57:19.894Z,50.81
2023-04-18T13:59:46.947Z,51.03
2023-04-18T14:02:13.954Z,51.34
2023-04-18T14:04:41.032Z,51.10
2023-04-18T14:07:09.200Z,51.26
2023-04-18T14:09:36.024Z,51.19
2023-04-18T14:12:02.874Z,51.14
2023-04-18T14:14:29.900Z,51.05
2023-04-18T14:16:56.923Z,51.23
2023-04-18T14:19:23.980Z,51.02
2023-04-18T14:21:50.925Z,50.90
2023-04-18T14:24:17.776Z,50.92
2023-04-18T14:26:44.679Z,51.30
2023-04-18T14:29:11.722Z,51.60
2023-04-18T14:31:38.629Z,51.50
2023-04-18T14:34:06.564Z,51.32
2023-04-18T14:36:33.390Z,51.35
2023-04-18T14:39:00.567Z,51.36
2023-04-18T14:41:27.643Z,51.43
2023-04-18T14:43:54.460Z,51.38
2023-04-18T14:46:21.470Z,51.52
2023-04-18T14:48:48.295Z,51.52
2023-04-18T14:51:16.914Z,51.55
2023-04-18T14:53:44.722Z,51.56
2023-04-18T14:56:11.709Z,51.47
2023-04-18T14:58:38.566Z,51.42
2023-04-18T15:01:05.631Z,51.41
2023-04-18T15:03:33.391Z,51.51
2023-04-18T15:06:00.610Z,51.41
2023-04-18T15:08:27.769Z,51.34
2023-04-18T15:10:54.524Z,51.36
2023-04-18T15:13:21.313Z,51.51
2023-04-18T15:15:54.693Z,51.59
2023-04-18T15:18:21.726Z,51.58
2023-04-18T15:20:48.795Z,51.75
2023-04-18T15:23:16.006Z,51.91
2023-04-18T15:25:45.460Z,51.81
2023-04-18T15:28:16.182Z,51.69
2023-04-18T15:30:42.990Z,51.85
2023-04-18T15:33:11.275Z,51.78
2023-04-18T15:35:38.178Z,51.71
2023-04-18T15:38:05.056Z,51.79
2023-04-18T15:40:33.232Z,51.72
2023-04-18T15:43:00.316Z,51.44
2023-04-18T15:45:47.306Z,51.61
2023-04-18T15:48:14.135Z,51.78
2023-04-18T15:50:42.499Z,51.72
2023-04-18T15:53:09.505Z,51.74
2023-04-18T15:55:36.455Z,51.87
2023-04-18T15:58:03.582Z,51.81
2023-04-18T16:00:30.493Z,51.96
2023-04-18T16:02:57.808Z,52.21
2023-04-18T16:05:24.773Z,52.24
2023-04-18T16:07:53.999Z,52.30
2023-04-18T16:10:20.842Z,52.31
2023-04-18T16:12:47.651Z,52.18
2023-04-18T16:15:14.446Z,52.38
2023-04-18T16:17:41.749Z,52.58
2023-04-18T16:20:09.325Z,52.66
2023-04-18T16:22:36.988Z,52.76
2023-04-18T16:25:05.292Z,52.89
2023-04-18T16:27:33.068Z,52.90
2023-04-18T16:30:00.190Z,53.03
2023-04-18T16:32:27.092Z,53.01
2023-04-18T16:34:57.227Z,53.05
2023-04-18T16:37:24.054Z,53.02
2023-04-18T16:39:51.343Z,53.15
2023-04-18T16:42:18.357Z,53.20
2023-04-18T16:44:45.985Z,53.40
2023-04-18T16:47:12.794Z,53.48
2023-04-18T16:49:40.675Z,53.57
2023-04-18T16:52:07.542Z,53.62
2023-04-18T16:54:35.350Z,53.64
2023-04-18T16:57:03.022Z,53.73
2023-04-18T16:59:31.290Z,53.76
2023-04-18T17:02:01.029Z,53.89
2023-04-18T17:04:29.632Z,53.87
2023-04-18T17:06:57.036Z,54.04
2023-04-18T17:09:24.207Z,54.19
2023-04-18T17:16:58.062Z,54.29
2023-04-18T17:19:25.042Z,54.47
2023-04-18T17:21:51.955Z,54.44
2023-04-18T17:24:25.088Z,54.47
2023-04-18T17:26:53.220Z,54.56
2023-04-18T17:29:21.211Z,54.53
2023-04-18T17:31:54.872Z,54.55
2023-04-18T17:34:22.283Z,54.60
2023-04-18T17:36:49.165Z,54.71
2023-04-18T17:39:17.021Z,54.59
2023-04-18T17:41:45.265Z,54.48
2023-04-18T17:44:57.973Z,54.49
2023-04-18T17:48:03.097Z,54.55
2023-04-18T17:50:39.775Z,54.56
2023-04-18T17:53:07.781Z,54.59
2023-04-18T17:55:34.915Z,54.77
2023-04-18T17:58:01.820Z,54.68
2023-04-18T18:00:28.821Z,54.75
2023-04-18T18:02:58.009Z,54.72
2023-04-18T18:05:49.040Z,54.72
2023-04-18T18:08:16.126Z,54.71
2023-04-18T18:10:43.050Z,54.72
2023-04-18T18:13:10.033Z,54.62
2023-04-18T18:15:36.922Z,54.72
2023-04-18T18:18:04.663Z,54.79
2023-04-18T18:20:31.593Z,54.83
2023-04-18T18:23:24.444Z,54.75
2023-04-18T18:25:52.199Z,54.81
2023-04-18T18:28:19.292Z,54.85
2023-04-18T18:30:46.115Z,54.84
2023-04-18T18:33:14.452Z,54.85
2023-04-18T18:35:41.997Z,54.85
2023-04-18T18:38:09.407Z,54.91
2023-04-18T18:40:39.725Z,54.64
2023-04-18T18:43:06.501Z,54.66
2023-04-18T18:45:35.553Z,54.54
2023-04-18T18:48:04.077Z,54.54
2023-04-18T18:50:31.041Z,54.29
2023-04-18T18:53:22.058Z,54.41
2023-04-18T18:55:49.445Z,54.37
2023-04-18T18:58:16.205Z,54.30
2023-04-18T19:00:42.976Z,54.43
2023-04-18T19:03:09.924Z,54.51
2023-04-18T19:05:36.861Z,54.67
2023-04-18T19:08:05.778Z,54.76
2023-04-18T19:10:32.608Z,54.53
2023-04-18T19:13:00.337Z,54.40
2023-04-18T19:15:27.309Z,54.58
2023-04-18T19:17:54.104Z,54.58
2023-04-18T19:20:21.038Z,54.65
2023-04-18T19:22:47.831Z,54.69
2023-04-18T19:25:14.644Z,54.81
2023-04-18T19:27:42.666Z,54.80
2023-04-18T19:30:29.897Z,54.78
2023-04-18T19:32:56.854Z,54.71
2023-04-18T19:35:23.705Z,54.82
2023-04-18T19:37:50.514Z,54.85
2023-04-18T19:40:17.318Z,55.15
2023-04-18T19:42:44.041Z,55.02
2023-04-18T19:45:12.314Z,55.02
2023-04-18T19:47:44.334Z,54.83
2023-04-18T19:50:11.700Z,54.91
2023-04-18T19:52:38.506Z,54.77
2023-04-18T19:55:05.586Z,54.98
2023-04-18T19:57:39.026Z,54.87
2023-04-18T20:00:11.260Z,54.94
2023-04-18T20:02:43.485Z,55.06
2023-04-18T20:05:10.837Z,54.96
2023-04-18T20:07:37.759Z,54.97
2023-04-18T20:10:05.320Z,54.98
2023-04-18T20:12:32.170Z,55.09
2023-04-18T20:14:59.067Z,55.26
2023-04-18T20:17:26.469Z,55.29
2023-04-18T20:19:57.046Z,55.30
2023-04-18T20:22:26.946Z,55.38
2023-04-18T20:24:57.184Z,55.38
2023-04-18T20:27:24.434Z,55.35
2023-04-18T20:29:51.218Z,55.53
2023-04-18T20:32:18.137Z,55.56
2023-04-18T20:34:46.719Z,55.61
2023-04-18T20:37:18.692Z,55.70
2023-04-18T20:39:45.638Z,55.74
2023-04-18T20:42:14.729Z,55.82
2023-04-18T20:44:43.424Z,56.05
2023-04-18T20:47:10.668Z,56.02
2023-04-18T20:49:38.184Z,55.95
2023-04-18T20:52:09.046Z,56.19
2023-04-18T20:54:35.854Z,56.13
2023-04-18T20:57:02.756Z,56.24
2023-04-18T20:59:29.700Z,56.05
2023-04-18T21:01:56.664Z,56.20
2023-04-18T21:04:23.793Z,56.33
2023-04-18T21:06:51.069Z,56.50
2023-04-18T21:09:18.052Z,56.70
2023-04-18T21:11:44.897Z,56.80
2023-04-18T21:14:11.756Z,56.50
2023-04-18T21:16:39.862Z,56.63
2023-04-18T21:19:09.164Z,56.73
2023-04-18T21:21:36.065Z,56.74
2023-04-18T21:24:05.122Z,56.61
2023-04-18T21:26:31.946Z,56.59
2023-04-18T21:29:01.091Z,56.56
2023-04-18T21:31:30.427Z,56.71
2023-04-18T21:33:59.220Z,56.74
2023-04-18T21:36:27.809Z,56.83
2023-04-18T21:38:59.185Z,56.76
2023-04-18T21:41:26.679Z,56.65
2023-04-18T21:43:53.801Z,56.72
2023-04-18T21:46:21.132Z,56.84
2023-04-18T21:48:48.348Z,56.83
2023-04-18T21:51:16.903Z,56.79
2023-04-18T21:53:44.131Z,56.75
2023-04-18T21:56:11.314Z,56.78
2023-04-18T21:58:38.206Z,56.74
2023-04-18T22:02:18.357Z,56.75
2023-04-18T22:04:45.184Z,56.81
2023-04-18T22:07:12.539Z,56.79
2023-04-18T22:09:39.879Z,56.84
2023-04-18T22:12:07.006Z,56.86
2023-04-18T22:14:34.114Z,57.02
2023-04-18T22:17:04.858Z,57.02
2023-04-18T22:19:31.941Z,57.13
2023-04-18T22:21:58.862Z,57.16
2023-04-18T22:24:28.558Z,57.10
2023-04-18T22:26:55.439Z,57.12
2023-04-18T22:29:22.235Z,57.10
2023-04-18T22:31:48.998Z,57.17
2023-04-18T22:34:16.072Z,57.04
2023-04-18T22:36:43.960Z,57.01
2023-04-18T22:39:12.211Z,56.86
2023-04-18T22:41:39.096Z,56.86
2023-04-18T22:44:06.025Z,56.83
2023-04-18T22:46:33.137Z,56.79
2023-04-18T22:49:00.023Z,56.76
2023-04-18T22:51:28.710Z,56.68
2023-04-18T22:53:56.347Z,56.72
2023-04-18T22:56:23.398Z,56.75
2023-04-18T22:58:50.160Z,56.81
2023-04-18T23:01:17.094Z,56.71
2023-04-18T23:03:43.979Z,56.66
2023-04-18T23:06:11.114Z,56.66
2023-04-18T23:08:37.908Z,56.71
2023-04-18T23:11:04.759Z,56.63
2023-04-18T23:13:31.536Z,56.62
2023-04-18T23:15:58.434Z,56.65
2023-04-18T23:18:25.193Z,56.62
2023-04-18T23:20:52.101Z,56.50
2023-04-18T23:23:18.877Z,56.67
2023-04-18T23:25:45.828Z,56.71
2023-04-18T23:28:13.807Z,56.59
2023-04-18T23:30:40.675Z,56.70
2023-04-18T23:33:08.544Z,56.77
2023-04-18T23:35:35.447Z,56.63
2023-04-18T23:38:02.230Z,56.50
2023-04-18T23:40:28.968Z,56.49
2023-04-18T23:42:55.753Z,56.52
2023-04-18T23:45:24.504Z,56.51
2023-04-18T23:47:51.789Z,56.60
2023-04-18T23:50:18.674Z,56.49
2023-04-18T23:52:45.624Z,56.38
2023-04-18T23:55:12.415Z,56.33
2023-04-18T23:57:39.180Z,56.51
